Terminal Aerodrome Forecast
Issued by NWS

Home | Current Version | Previous Version | Text Only | Print | Product List | Glossary Off
Versions: 1 2 3 4 5 6 7 8 9 10 11 12 13 14 15 16 17 18 19 20 21 22 23 24 25

000
FTUS43 KGRB 232300
TAFCWA
TAF
KCWA 232325Z 2400/2424 35003KT 3SM BR OVC005
      TEMPO 2400/2404 1/2SM -DZ FG OVC002
     FM240400 35004KT 4SM BR OVC004
      TEMPO 2404/2408 1SM -DZ BR OVC002
     FM241600 36005KT 4SM -SN BR SCT005 OVC010
     FM241900 35008KT P6SM -SN SCT008 OVC015
      AMD LTD TO CLD VIS AND WIND 2403/2411=

USA.gov is the U.S. government's official web portal to all federal, state and local government web resources and services.